Time;durP1;ratioP1;P1;durP2;ratioP2;P2;SDS_P1;SDS_P2;PMS_P1;PMS_P2;Temp;Humidity;BMP_temperature;BMP_pressure;BME280_temperature;BME280_humidity;BME280_pressure;Samples;Min_cycle;Max_cycle;Signal;HPM_P1;HPM_P2
2021/08/06 00:01:58;;;;;;;4.30;2.70;;;;;;;21.82;57.92;100157.91;5034215;28;20017;-65
2021/08/06 00:04:26;;;;;;;4.18;2.50;;;;;;;21.82;57.80;100150.75;5034533;28;20500;-64
2021/08/06 00:06:52;;;;;;;3.75;2.45;;;;;;;21.82;57.93;100147.28;5033196;28;20473;-64
2021/08/06 00:09:17;;;;;;;4.10;2.42;;;;;;;21.82;57.91;100152.59;5034357;28;20117;-65
2021/08/06 00:11:42;;;;;;;4.50;2.47;;;;;;;21.81;57.86;100149.13;5034056;28;20120;-64
2021/08/06 00:14:11;;;;;;;3.90;2.47;;;;;;;21.81;58.01;100145.63;5033454;28;20108;-64
2021/08/06 00:16:39;;;;;;;4.10;2.53;;;;;;;21.72;57.59;100132.38;5034193;28;20029;-64
2021/08/06 00:19:04;;;;;;;4.43;2.67;;;;;;;21.79;57.88;100140.47;5034059;28;20060;-64
2021/08/06 00:21:30;;;;;;;4.45;2.72;;;;;;;21.80;57.86;100143.97;5033681;28;20539;-64
2021/08/06 00:23:55;;;;;;;4.40;2.63;;;;;;;21.80;57.92;100138.69;5033776;28;20033;-63
2021/08/06 00:26:20;;;;;;;3.95;2.40;;;;;;;21.77;57.90;100139.00;5033919;28;20039;-64
2021/08/06 00:28:48;;;;;;;3.42;2.03;;;;;;;21.78;57.78;100140.66;5033091;28;20377;-64
2021/08/06 00:31:14;;;;;;;3.58;2.25;;;;;;;21.78;57.87;100141.50;5033893;28;20542;-65
2021/08/06 00:33:40;;;;;;;4.18;2.42;;;;;;;21.78;57.74;100136.19;5033299;28;20120;-64
2021/08/06 00:36:05;;;;;;;4.30;2.50;;;;;;;21.76;57.96;100132.84;5032732;28;20035;-64
2021/08/06 00:38:30;;;;;;;4.57;2.50;;;;;;;21.78;57.95;100132.69;5033801;28;20026;-64
2021/08/06 00:40:56;;;;;;;4.20;2.47;;;;;;;21.77;57.91;100128.41;5032963;28;20025;-64
2021/08/06 00:43:22;;;;;;;4.78;2.60;;;;;;;21.76;57.93;100122.25;5033495;28;20022;-66
2021/08/06 00:45:47;;;;;;;4.00;2.40;;;;;;;21.77;57.75;100123.91;5033435;28;20021;-64
2021/08/06 00:48:13;;;;;;;4.72;2.60;;;;;;;21.77;57.62;100120.44;5032956;28;20033;-64
2021/08/06 00:50:38;;;;;;;3.95;2.45;;;;;;;21.74;57.82;100117.09;5033593;28;20481;-64
2021/08/06 00:53:04;;;;;;;3.40;2.00;;;;;;;21.77;57.80;100123.09;5032999;28;20029;-63
2021/08/06 00:55:29;;;;;;;4.30;2.40;;;;;;;21.76;57.90;100124.91;5032672;28;20539;-64
2021/08/06 00:57:55;;;;;;;4.57;2.45;;;;;;;21.75;57.77;100125.91;5033222;28;20030;-64
2021/08/06 01:00:20;;;;;;;4.60;2.85;;;;;;;21.73;57.88;100119.97;5033525;28;20029;-65
2021/08/06 01:03:11;;;;;;;4.18;2.50;;;;;;;21.74;57.80;100118.94;5032262;28;20104;-66
2021/08/06 01:05:45;;;;;;;4.70;2.45;;;;;;;21.75;57.78;100117.97;5033431;28;20100;-65
2021/08/06 01:08:10;;;;;;;;;;;;;;;21.74;57.98;100111.00;5034019;28;20053;-65
2021/08/06 01:10:42;;;;;;;3.58;2.13;;;;;;;21.74;57.78;100111.00;5032680;28;20415;-65
2021/08/06 01:13:09;;;;;;;4.40;2.30;;;;;;;21.72;57.84;100107.69;5033152;28;20030;-64
2021/08/06 01:15:41;;;;;;;4.05;2.10;;;;;;;21.71;57.85;100106.00;5032941;28;20536;-64
2021/08/06 01:18:12;;;;;;;4.00;2.30;;;;;;;21.72;57.91;100108.50;5032120;28;20224;-64
2021/08/06 01:20:42;;;;;;;4.53;2.25;;;;;;;21.72;57.87;100113.81;5033131;28;20030;-64
2021/08/06 01:23:19;;;;;;;4.10;2.10;;;;;;;21.72;58.04;100110.34;5032476;28;20071;-64
2021/08/06 01:26:01;;;;;;;4.53;2.45;;;;;;;21.72;57.78;100112.97;5032479;28;20021;-64
2021/08/06 01:28:34;;;;;;;4.50;2.60;;;;;;;21.72;57.86;100110.34;5032978;28;20033;-64
2021/08/06 01:31:00;;;;;;;4.40;2.25;;;;;;;21.71;57.83;100114.81;5031598;28;20465;-64
2021/08/06 01:33:25;;;;;;;4.38;2.40;;;;;;;21.70;57.81;100112.34;5032964;28;20030;-63
2021/08/06 01:35:50;;;;;;;3.42;1.90;;;;;;;21.70;57.89;100110.50;5032607;28;20144;-65
2021/08/06 01:38:19;;;;;;;4.53;2.33;;;;;;;21.70;57.66;100102.53;5032166;28;20365;-65
2021/08/06 01:41:22;;;;;;;3.92;2.10;;;;;;;21.72;57.90;100103.19;5032445;28;20022;-65
2021/08/06 01:44:12;;;;;;;3.80;2.35;;;;;;;21.71;57.80;100103.34;5032568;28;20030;-65
2021/08/06 01:46:48;;;;;;;4.45;2.45;;;;;;;21.69;57.75;100095.56;5032058;28;20030;-66
2021/08/06 01:49:17;;;;;;;3.90;2.00;;;;;;;21.70;57.60;100102.53;5032637;28;20037;-65
2021/08/06 01:51:49;;;;;;;4.13;2.35;;;;;;;21.69;57.68;100092.91;5031542;28;20113;-66
2021/08/06 01:54:18;;;;;;;3.83;2.35;;;;;;;21.68;57.89;100099.22;5032297;28;20559;-64
2021/08/06 01:56:44;;;;;;;3.88;2.13;;;;;;;21.70;57.82;100088.47;5032353;28;20029;-64
2021/08/06 01:59:10;;;;;;;4.10;2.13;;;;;;;21.69;57.61;100087.63;5031642;28;20025;-64
2021/08/06 02:01:39;;;;;;;3.90;2.28;;;;;;;21.69;57.67;100086.78;5032412;28;20068;-65
2021/08/06 02:04:05;;;;;;;3.60;2.08;;;;;;;21.70;57.68;100080.50;5032098;28;20030;-64
2021/08/06 02:06:30;;;;;;;3.75;2.28;;;;;;;21.69;57.79;100077.00;5030857;28;20064;-65
2021/08/06 02:08:56;;;;;;;4.43;2.05;;;;;;;21.68;57.79;100072.72;5032145;28;20027;-65
2021/08/06 02:11:21;;;;;;;4.00;2.15;;;;;;;21.68;57.50;100078.03;5032393;28;20103;-64
2021/08/06 02:13:50;;;;;;;5.47;2.03;;;;;;;21.69;57.81;100078.84;5031681;28;20129;-65
2021/08/06 02:16:15;;;;;;;4.45;1.88;;;;;;;21.69;57.64;100071.69;5032939;28;20068;-64
2021/08/06 02:18:48;;;;;;;4.32;2.15;;;;;;;21.65;57.77;100065.09;5032025;28;20041;-64
2021/08/06 02:21:19;;;;;;;4.83;2.17;;;;;;;21.68;57.70;100064.75;5031603;28;20492;-64
2021/08/06 02:23:48;;;;;;;3.47;1.90;;;;;;;21.67;57.71;100065.75;5032092;28;20045;-64
2021/08/06 02:26:16;;;;;;;3.35;2.00;;;;;;;21.67;57.82;100065.75;5032398;28;20115;-65
2021/08/06 02:28:44;;;;;;;3.97;2.05;;;;;;;21.67;57.66;100064.94;5031838;28;20436;-64
2021/08/06 02:31:09;;;;;;;4.35;2.17;;;;;;;21.68;57.62;100061.25;5032325;28;20022;-65
2021/08/06 02:33:35;;;;;;;3.78;1.88;;;;;;;21.67;57.69;100064.94;5031644;28;20048;-65
2021/08/06 02:36:00;;;;;;;3.22;1.70;;;;;;;21.66;57.77;100053.47;5031257;28;20048;-65
2021/08/06 02:38:27;;;;;;;4.07;2.20;;;;;;;21.66;57.75;100061.44;5032290;28;20100;-64
2021/08/06 02:40:53;;;;;;;5.05;2.00;;;;;;;21.66;57.20;100052.66;5031226;28;20076;-64
2021/08/06 02:43:21;;;;;;;3.10;1.80;;;;;;;21.64;57.65;100058.13;5032213;28;20025;-64
2021/08/06 02:45:48;;;;;;;3.53;1.80;;;;;;;21.66;57.85;100055.31;5031576;28;20033;-65
2021/08/06 02:48:13;;;;;;;3.95;1.75;;;;;;;21.65;57.51;100049.19;5031918;28;20029;-65
2021/08/06 02:50:38;;;;;;;3.40;1.70;;;;;;;21.63;57.67;100053.81;5032943;28;20036;-64
2021/08/06 02:53:10;;;;;;;3.53;1.90;;;;;;;21.65;57.96;100059.78;5032228;28;20064;-66
2021/08/06 02:55:39;;;;;;;5.70;1.80;;;;;;;21.63;57.99;100053.00;5031646;28;20029;-63
2021/08/06 02:58:04;;;;;;;4.13;2.00;;;;;;;21.65;58.10;100056.28;5030424;28;20038;-64
2021/08/06 03:00:33;;;;;;;3.90;2.00;;;;;;;21.66;57.85;100057.97;5036260;28;20036;-64
2021/08/06 03:02:58;;;;;;;3.20;1.60;;;;;;;21.65;57.96;100053.63;5035269;28;20025;-64
2021/08/06 03:05:24;;;;;;;3.47;1.85;;;;;;;21.62;58.02;100046.03;5036015;28;20021;-64
2021/08/06 03:07:53;;;;;;;3.00;1.80;;;;;;;21.65;58.01;100046.53;5035272;28;20113;-64
2021/08/06 03:10:22;;;;;;;3.20;1.80;;;;;;;21.64;58.14;100038.75;5034620;28;20469;-65
2021/08/06 03:12:49;;;;;;;3.40;1.73;;;;;;;21.63;58.31;100051.16;5034809;28;20027;-65
2021/08/06 03:15:18;;;;;;;3.25;1.90;;;;;;;21.63;58.17;100034.44;5035383;28;20033;-65
2021/08/06 03:17:44;;;;;;;3.75;1.90;;;;;;;21.63;58.15;100032.59;5034358;28;20017;-65
2021/08/06 03:20:14;;;;;;;3.97;1.60;;;;;;;21.62;58.27;100033.59;5035518;28;20079;-65
2021/08/06 03:22:40;;;;;;;3.70;1.80;;;;;;;21.64;58.34;100030.78;5035386;28;20038;-64
2021/08/06 03:25:07;;;;;;;3.05;1.60;;;;;;;21.61;58.28;100028.47;5034250;28;20126;-64
2021/08/06 03:27:34;;;;;;;3.08;1.70;;;;;;;21.62;58.11;100023.00;5034794;28;20156;-65
2021/08/06 03:29:59;;;;;;;3.90;1.70;;;;;;;21.62;58.46;100028.31;5032785;28;20409;-64
2021/08/06 03:32:24;;;;;;;3.20;1.80;;;;;;;21.62;58.47;100027.47;5034593;28;20056;-64
2021/08/06 03:34:50;;;;;;;2.80;1.48;;;;;;;21.62;58.31;100030.09;5034233;28;20052;-65
2021/08/06 03:37:15;;;;;;;3.63;1.83;;;;;;;21.61;58.40;100024.00;5033684;28;20017;-65
2021/08/06 03:39:40;;;;;;;3.65;1.50;;;;;;;21.62;58.42;100030.97;5034512;28;20532;-64
2021/08/06 03:42:07;;;;;;;3.60;1.80;;;;;;;21.61;58.61;100028.47;5032648;28;20568;-64
2021/08/06 03:44:35;;;;;;;3.65;1.98;;;;;;;21.61;58.52;100029.28;5034023;28;20021;-64
2021/08/06 03:47:00;;;;;;;3.55;1.80;;;;;;;21.60;58.48;100024.97;5034502;28;20037;-64
2021/08/06 03:49:25;;;;;;;2.97;1.58;;;;;;;21.62;58.58;100024.81;5034842;28;20021;-64
2021/08/06 03:51:54;;;;;;;3.00;1.60;;;;;;;21.61;58.54;100017.88;5033551;28;20032;-64
2021/08/06 03:54:19;;;;;;;2.58;1.60;;;;;;;21.60;58.67;100024.97;5034544;28;20282;-64
2021/08/06 03:56:44;;;;;;;3.20;1.77;;;;;;;21.61;58.56;100026.63;5034307;28;20025;-64
2021/08/06 03:59:12;;;;;;;2.78;1.52;;;;;;;21.61;58.63;100023.16;5033896;28;20100;-64
2021/08/06 04:01:37;;;;;;;3.72;1.58;;;;;;;21.60;58.56;100024.97;5034425;28;20040;-64
2021/08/06 04:04:03;;;;;;;3.47;1.70;;;;;;;21.60;58.53;100022.31;5034112;28;20030;-65
2021/08/06 04:06:31;;;;;;;2.90;1.38;;;;;;;21.58;58.68;100024.31;5033572;28;20032;-65
2021/08/06 04:08:56;;;;;;;2.83;1.30;;;;;;;21.58;58.79;100024.31;5032958;28;20017;-65
2021/08/06 04:11:22;;;;;;;3.40;1.50;;;;;;;21.60;58.68;100029.47;5034229;28;20509;-64
2021/08/06 04:13:47;;;;;;;2.90;1.63;;;;;;;21.59;58.68;100022.50;5033406;28;20022;-66
2021/08/06 04:16:13;;;;;;;2.42;1.35;;;;;;;21.59;58.59;100030.44;5034354;28;20064;-65
2021/08/06 04:18:38;;;;;;;2.97;1.63;;;;;;;21.59;58.72;100025.13;5034296;28;20127;-64
2021/08/06 04:21:04;;;;;;;3.55;1.60;;;;;;;21.57;58.79;100033.28;5033029;28;20025;-65
2021/08/06 04:23:29;;;;;;;3.13;1.50;;;;;;;21.59;58.76;100030.44;5034011;28;20067;-65
2021/08/06 04:25:54;;;;;;;4.10;1.60;;;;;;;21.57;58.93;100025.34;5033880;28;20406;-65
2021/08/06 04:28:20;;;;;;;2.80;1.33;;;;;;;21.58;58.83;100031.47;5033388;28;20124;-64
2021/08/06 04:30:45;;;;;;;3.08;1.40;;;;;;;21.55;58.98;100022.84;5033845;28;20022;-64
2021/08/06 04:33:10;;;;;;;3.15;1.45;;;;;;;21.57;58.94;100030.63;5033451;28;20029;-65
2021/08/06 04:35:35;;;;;;;2.73;1.40;;;;;;;21.56;58.95;100028.97;5033783;28;20032;-64
2021/08/06 04:38:01;;;;;;;2.53;1.27;;;;;;;21.56;59.04;100035.09;5033550;28;20409;-65
2021/08/06 04:40:27;;;;;;;3.72;1.50;;;;;;;21.58;59.07;100034.09;5032983;28;20060;-65
2021/08/06 04:42:52;;;;;;;2.50;1.30;;;;;;;21.56;59.08;100035.09;5033485;28;20021;-64
2021/08/06 04:45:18;;;;;;;4.28;1.63;;;;;;;21.58;59.06;100031.47;5033857;28;20026;-64
2021/08/06 04:47:48;;;;;;;2.83;1.55;;;;;;;21.57;58.94;100028.00;5032660;28;20176;-65
2021/08/06 04:50:15;;;;;;;3.08;1.48;;;;;;;21.56;59.09;100034.28;5033673;28;20068;-64
2021/08/06 04:52:41;;;;;;;2.40;1.17;;;;;;;21.57;59.04;100041.25;5033503;28;20036;-64
2021/08/06 04:55:07;;;;;;;2.88;1.40;;;;;;;21.56;59.18;100039.56;5032289;28;20120;-66
2021/08/06 04:57:36;;;;;;;2.47;1.20;;;;;;;21.49;59.02;100026.16;5033394;28;20028;-64
2021/08/06 05:00:07;;;;;;;3.35;1.33;;;;;;;21.57;59.05;100038.59;5033297;28;20052;-65
2021/08/06 05:02:32;;;;;;;2.35;1.27;;;;;;;21.55;59.00;100037.91;5032610;28;20543;-65
2021/08/06 05:04:57;;;;;;;3.13;1.50;;;;;;;21.53;59.22;100035.44;5033205;28;20025;-64
2021/08/06 05:07:23;;;;;;;2.20;1.20;;;;;;;21.56;59.29;100047.53;5032958;28;20057;-64
2021/08/06 05:09:48;;;;;;;3.03;1.50;;;;;;;21.55;59.11;100040.56;5032369;28;20283;-64
2021/08/06 05:12:13;;;;;;;2.65;1.30;;;;;;;21.54;59.23;100042.38;5033216;28;20278;-65
2021/08/06 05:14:40;;;;;;;1.88;1.05;;;;;;;21.53;59.28;100039.91;5033328;28;20017;-64
2021/08/06 05:17:15;;;;;;;2.63;1.30;;;;;;;21.54;59.18;100047.69;5031949;28;20053;-65
2021/08/06 05:19:43;;;;;;;4.63;1.38;;;;;;;21.55;59.19;100048.50;5032859;28;20069;-64
2021/08/06 05:22:08;;;;;;;2.45;1.25;;;;;;;21.54;59.34;100047.69;5033126;28;20048;-64
2021/08/06 05:24:34;;;;;;;2.38;1.10;;;;;;;21.55;59.40;100045.88;5032402;28;20461;-65
2021/08/06 05:26:59;;;;;;;2.67;1.30;;;;;;;21.55;59.26;100046.72;5032523;28;20068;-64
2021/08/06 05:29:24;;;;;;;2.90;1.42;;;;;;;21.55;59.32;100059.13;5032109;28;20422;-65
2021/08/06 05:31:50;;;;;;;2.05;1.15;;;;;;;21.53;59.26;100056.63;5032654;28;20026;-64
2021/08/06 05:34:15;;;;;;;2.30;1.10;;;;;;;21.54;59.43;100055.66;5032859;28;20028;-65
2021/08/06 05:36:41;;;;;;;2.30;1.05;;;;;;;21.55;59.30;100067.06;5031875;28;20331;-66
2021/08/06 05:39:06;;;;;;;2.33;1.10;;;;;;;21.55;59.41;100067.06;5032620;28;20465;-64
2021/08/06 05:41:31;;;;;;;2.13;1.13;;;;;;;21.54;59.42;100068.91;5032624;28;20100;-65
2021/08/06 05:43:56;;;;;;;1.93;1.07;;;;;;;21.54;59.42;100060.94;5031709;28;20025;-65
2021/08/06 05:46:22;;;;;;;2.17;1.13;;;;;;;21.54;59.50;100071.56;5032790;28;20309;-64
2021/08/06 05:48:47;;;;;;;2.60;1.30;;;;;;;21.54;59.39;100068.91;5032225;28;20477;-64
2021/08/06 05:51:12;;;;;;;2.83;1.08;;;;;;;21.54;59.40;100063.59;5031762;28;20361;-65
2021/08/06 05:53:38;;;;;;;2.88;1.30;;;;;;;21.54;59.48;100070.75;5031540;28;20038;-65
2021/08/06 05:56:03;;;;;;;2.45;1.20;;;;;;;21.54;59.40;100068.09;5032094;28;20025;-64
2021/08/06 05:58:29;;;;;;;2.17;1.23;;;;;;;21.55;59.57;100069.72;5031688;28;20027;-64
2021/08/06 06:00:54;;;;;;;2.13;1.10;;;;;;;21.53;59.74;100074.38;5032109;28;20036;-65
2021/08/06 06:03:19;;;;;;;1.80;1.00;;;;;;;21.53;59.51;100080.50;5032339;28;20045;-64
2021/08/06 06:05:45;;;;;;;2.28;1.13;;;;;;;21.54;59.45;100079.50;5031276;28;20461;-65
2021/08/06 06:08:11;;;;;;;1.90;0.95;;;;;;;21.52;59.52;100075.34;5032487;28;20470;-65
2021/08/06 06:10:37;;;;;;;2.20;1.10;;;;;;;21.53;59.63;100072.53;5032445;28;20052;-65
2021/08/06 06:13:03;;;;;;;2.22;1.05;;;;;;;21.54;59.48;100081.34;5031344;28;20053;-64
2021/08/06 06:15:29;;;;;;;1.67;0.90;;;;;;;21.52;59.54;100081.50;5032240;28;20108;-64
2021/08/06 06:17:55;;;;;;;3.47;1.40;;;;;;;21.53;59.41;100088.44;5031797;28;20113;-63
2021/08/06 06:20:22;;;;;;;2.05;1.17;;;;;;;21.53;59.55;100091.09;5031358;28;20025;-64
2021/08/06 06:22:48;;;;;;;2.75;1.17;;;;;;;21.53;59.46;100099.06;5031956;28;20159;-65
2021/08/06 06:25:13;;;;;;;2.50;1.20;;;;;;;21.52;59.68;100102.72;5032195;28;20053;-64
2021/08/06 06:28:00;;;;;;;2.97;1.20;;;;;;;21.54;59.67;100099.91;5031251;28;20030;-64
2021/08/06 06:30:27;;;;;;;1.90;1.05;;;;;;;21.53;59.64;100104.34;5032317;28;20049;-64
2021/08/06 06:32:54;;;;;;;2.33;1.13;;;;;;;21.55;59.45;100104.19;5034437;28;20036;-64
2021/08/06 06:35:20;;;;;;;1.80;1.00;;;;;;;21.53;59.42;100107.00;5036201;28;20037;-65
2021/08/06 06:37:46;;;;;;;2.80;1.17;;;;;;;21.53;59.73;100112.31;5035787;28;20100;-64
2021/08/06 06:40:13;;;;;;;1.98;0.85;;;;;;;21.54;59.50;100110.50;5035252;28;20025;-64
2021/08/06 06:42:38;;;;;;;2.38;1.10;;;;;;;21.51;59.45;100108.19;5035498;28;20454;-64
2021/08/06 06:45:07;;;;;;;2.00;1.00;;;;;;;21.53;59.29;100109.66;5035584;28;20033;-65
2021/08/06 06:47:41;;;;;;;2.10;1.10;;;;;;;21.53;59.46;100109.66;5035037;28;20033;-63
2021/08/06 06:50:10;;;;;;;2.05;1.02;;;;;;;21.55;59.56;100114.78;5035380;28;20473;-63
2021/08/06 06:52:36;;;;;;;2.55;1.17;;;;;;;21.54;59.43;100108.66;5035854;28;20036;-71
2021/08/06 06:55:03;;;;;;;3.17;1.35;;;;;;;21.55;59.54;100113.00;5034819;28;20099;-65
2021/08/06 06:57:28;;;;;;;1.90;1.10;;;;;;;21.55;59.63;100118.28;5035588;28;20091;-66
2021/08/06 06:59:55;;;;;;;3.08;1.25;;;;;;;21.58;59.86;100124.25;5035369;28;20430;-62
2021/08/06 07:02:21;;;;;;;2.65;1.38;;;;;;;21.57;59.87;100123.44;5035051;28;20048;-65
2021/08/06 07:04:46;;;;;;;3.22;1.45;;;;;;;21.61;60.10;100124.75;5035410;28;20017;-67
2021/08/06 07:07:11;;;;;;;3.30;1.40;;;;;;;21.64;60.21;100128.91;5035569;28;20488;-67
2021/08/06 07:09:37;;;;;;;1.80;1.17;;;;;;;21.65;60.15;100133.19;5034820;28;20055;-66
2021/08/06 07:12:02;;;;;;;3.10;1.20;;;;;;;21.67;60.47;100133.88;5035176;28;20356;-66
2021/08/06 07:14:27;;;;;;;3.42;1.30;;;;;;;21.67;60.43;100133.88;5035355;28;20638;-65
2021/08/06 07:16:53;;;;;;;2.17;1.10;;;;;;;21.68;60.45;100146.13;5034516;28;20097;-65
2021/08/06 07:19:18;;;;;;;2.13;1.05;;;;;;;21.68;60.35;100146.97;5035281;28;20053;-66
2021/08/06 07:21:48;;;;;;;2.90;1.30;;;;;;;21.69;60.39;100145.94;5035184;28;20025;-65
2021/08/06 07:24:13;;;;;;;2.28;1.10;;;;;;;21.72;60.57;100147.47;5034684;28;20037;-63
2021/08/06 07:26:41;;;;;;;2.42;1.25;;;;;;;21.71;60.46;100146.63;5035216;28;20076;-64
2021/08/06 07:29:07;;;;;;;3.15;1.50;;;;;;;21.73;60.71;100135.88;5034116;28;20032;-66
2021/08/06 07:31:32;;;;;;;3.00;1.30;;;;;;;21.74;60.75;100126.91;5035187;28;20029;-66
2021/08/06 07:33:57;;;;;;;4.00;1.30;;;;;;;21.76;60.85;100140.00;5034735;28;20033;-66
2021/08/06 07:36:23;;;;;;;4.07;1.30;;;;;;;21.77;60.93;100144.31;5034176;28;20032;-64
2021/08/06 07:38:48;;;;;;;4.13;1.25;;;;;;;21.79;61.11;100144.97;5034413;28;20033;-62
2021/08/06 07:41:13;;;;;;;3.50;1.40;;;;;;;21.78;60.99;100144.16;5034939;28;20032;-65
2021/08/06 07:43:39;;;;;;;4.85;1.27;;;;;;;21.78;61.15;100148.59;5033816;28;20309;-64
2021/08/06 07:46:04;;;;;;;2.35;1.25;;;;;;;21.78;60.98;100151.25;5034457;28;20049;-63
2021/08/06 07:48:29;;;;;;;3.90;1.20;;;;;;;21.79;61.01;100151.09;5034626;28;20350;-61
2021/08/06 07:50:54;;;;;;;3.00;1.40;;;;;;;21.81;60.77;100143.81;5033855;28;20021;-64
2021/08/06 07:53:20;;;;;;;2.78;1.27;;;;;;;21.83;60.81;100144.47;5034485;28;20432;-67
2021/08/06 07:55:45;;;;;;;4.45;1.50;;;;;;;21.83;60.47;100151.63;5034438;28;20053;-66
2021/08/06 07:58:10;;;;;;;4.22;1.40;;;;;;;21.81;60.91;100151.78;5033813;28;20032;-64
2021/08/06 08:00:36;;;;;;;4.30;1.40;;;;;;;21.82;60.83;100155.25;5034514;28;20017;-65
2021/08/06 08:03:04;;;;;;;4.18;1.70;;;;;;;21.83;61.17;100154.25;5035178;28;20314;-65
2021/08/06 08:05:29;;;;;;;4.97;1.63;;;;;;;21.87;61.18;100166.19;5034556;28;20595;-65
2021/08/06 08:07:54;;;;;;;4.50;1.55;;;;;;;21.86;61.34;100157.41;5034588;28;20087;-65
2021/08/06 08:10:23;;;;;;;3.58;1.27;;;;;;;21.86;61.17;100154.75;5034529;28;20021;-65
2021/08/06 08:12:48;;;;;;;2.97;1.38;;;;;;;21.90;60.97;100163.19;5033330;28;20029;-64
2021/08/06 08:15:13;;;;;;;4.47;1.53;;;;;;;21.88;61.24;100159.91;5035002;28;20127;-65
2021/08/06 08:17:39;;;;;;;3.45;1.30;;;;;;;21.92;61.21;100163.84;5034841;28;20283;-67
2021/08/06 08:20:14;;;;;;;3.33;1.50;;;;;;;21.93;60.89;100166.34;5033487;28;20299;-65
2021/08/06 08:22:40;;;;;;;3.00;1.27;;;;;;;21.94;60.93;100159.22;5034474;28;20022;-65
2021/08/06 08:25:06;;;;;;;3.53;1.50;;;;;;;21.92;60.76;100166.50;5034108;28;20079;-65
2021/08/06 08:27:32;;;;;;;3.50;1.42;;;;;;;21.91;60.96;100160.38;5033797;28;20029;-65
2021/08/06 08:29:58;;;;;;;4.75;1.70;;;;;;;21.89;61.10;100167.69;5034192;28;20049;-65
2021/08/06 08:32:24;;;;;;;4.30;1.83;;;;;;;21.88;61.25;100165.19;5033449;28;20048;-64
2021/08/06 08:34:49;;;;;;;3.38;1.38;;;;;;;21.86;61.72;100168.03;5033866;28;20670;-62
2021/08/06 08:37:15;;;;;;;5.45;1.50;;;;;;;21.88;61.58;100165.19;5034193;28;20029;-63
2021/08/06 08:39:41;;;;;;;3.28;1.35;;;;;;;21.87;61.80;100159.06;5033404;28;20076;-63
2021/08/06 08:42:07;;;;;;;2.67;1.33;;;;;;;21.88;61.64;100163.38;5034635;28;20418;-64
2021/08/06 08:44:37;;;;;;;4.20;1.30;;;;;;;21.89;61.70;100165.03;5034313;28;20029;-64
2021/08/06 08:47:04;;;;;;;3.33;1.30;;;;;;;21.90;61.73;100168.50;5032865;28;20109;-63
2021/08/06 08:49:32;;;;;;;2.80;1.13;;;;;;;21.88;61.73;100150.09;5033903;28;20026;-65
2021/08/06 08:51:58;;;;;;;4.97;1.33;;;;;;;21.91;61.58;100163.03;5032393;28;20338;-64
2021/08/06 08:54:23;;;;;;;4.40;1.48;;;;;;;21.93;61.54;100166.34;5032219;28;20048;-66
2021/08/06 08:56:49;;;;;;;4.03;1.42;;;;;;;21.91;61.62;100157.72;5033455;28;20022;-64
2021/08/06 08:59:14;;;;;;;3.75;1.52;;;;;;;21.95;61.43;100160.88;5033561;28;20362;-65
2021/08/06 09:01:40;;;;;;;2.65;1.30;;;;;;;21.95;61.59;100166.19;5032698;28;20021;-66
2021/08/06 09:04:28;;;;;;;3.00;1.50;;;;;;;21.96;61.34;100159.88;5036069;28;20025;-63
2021/08/06 09:06:55;;;;;;;4.93;1.50;;;;;;;21.95;61.23;100165.34;5032884;28;20029;-66
2021/08/06 09:09:25;;;;;;;3.72;1.20;;;;;;;21.96;61.42;100156.41;5032787;28;20112;-63
2021/08/06 09:12:07;;;;;;;3.63;1.17;;;;;;;21.99;61.64;100158.75;5033178;28;20493;-65
2021/08/06 09:14:34;;;;;;;4.60;1.60;;;;;;;21.98;61.63;100162.38;5032646;28;20022;-64
2021/08/06 09:17:01;;;;;;;2.70;1.40;;;;;;;21.99;61.49;100164.88;5032946;28;20101;-65
2021/08/06 09:19:34;;;;;;;3.45;1.33;;;;;;;22.00;61.35;100169.19;5032826;28;20029;-65
2021/08/06 09:22:24;;;;;;;3.10;1.40;;;;;;;22.02;61.57;100158.41;5032408;28;20044;-67
2021/08/06 09:25:12;;;;;;;3.22;1.30;;;;;;;22.03;61.38;100150.28;5033552;28;20036;-67
2021/08/06 09:27:46;;;;;;;3.55;1.60;;;;;;;22.03;61.21;100162.69;5032910;28;20030;-67
2021/08/06 09:30:36;;;;;;;4.20;1.75;;;;;;;22.05;61.58;100166.84;5032285;28;20029;-66
2021/08/06 09:33:05;;;;;;;3.38;1.35;;;;;;;22.07;61.24;100175.47;5032908;28;20034;-67
2021/08/06 09:35:33;;;;;;;4.45;1.58;;;;;;;22.09;61.45;100170.00;5032210;28;20018;-67
2021/08/06 09:37:59;;;;;;;3.42;1.17;;;;;;;22.07;61.28;100167.50;5032143;28;20045;-66
2021/08/06 09:40:26;;;;;;;2.63;1.30;;;;;;;22.09;61.27;100172.66;5032781;28;20192;-67
2021/08/06 09:42:56;;;;;;;3.33;1.30;;;;;;;22.09;61.07;100173.47;5031732;28;20034;-68
2021/08/06 09:45:25;;;;;;;2.97;1.30;;;;;;;22.12;61.16;100180.28;5033041;28;20095;-65
2021/08/06 09:47:55;;;;;;;2.33;1.17;;;;;;;22.13;61.10;100179.28;5032366;28;20037;-65
2021/08/06 09:50:23;;;;;;;3.80;1.58;;;;;;;22.12;61.08;100174.97;5032016;28;20053;-65
2021/08/06 09:52:51;;;;;;;2.78;1.25;;;;;;;22.13;60.92;100181.09;5032319;28;20037;-67
2021/08/06 09:55:35;;;;;;;4.05;1.30;;;;;;;22.13;61.01;100181.09;5032498;28;20044;-67
2021/08/06 09:58:03;;;;;;;3.05;1.17;;;;;;;22.14;60.85;100178.28;5031927;28;20465;-66
2021/08/06 10:00:29;;;;;;;2.85;1.23;;;;;;;22.16;60.95;100184.25;5032387;28;20030;-69
2021/08/06 10:02:55;;;;;;;3.53;1.60;;;;;;;22.16;60.61;100191.38;5032204;28;20027;-67
2021/08/06 10:05:22;;;;;;;3.92;1.35;;;;;;;22.17;60.97;100182.44;5031246;28;20025;-66
2021/08/06 10:07:50;;;;;;;2.95;1.40;;;;;;;22.17;60.71;100179.78;5031790;28;20025;-67
2021/08/06 10:10:19;;;;;;;3.67;1.20;;;;;;;22.17;60.63;100179.78;5032515;28;20053;-67
2021/08/06 10:12:47;;;;;;;3.55;1.30;;;;;;;22.18;60.60;100182.25;5031374;28;20040;-67
2021/08/06 10:15:14;;;;;;;4.15;1.52;;;;;;;22.18;60.54;100186.75;5032649;28;20466;-67
2021/08/06 10:17:40;;;;;;;3.20;1.00;;;;;;;22.18;60.83;100174.31;5032556;28;20076;-65
2021/08/06 10:20:08;;;;;;;3.92;1.20;;;;;;;22.18;60.56;100178.78;5032600;28;20026;-62
2021/08/06 10:22:34;;;;;;;3.55;1.40;;;;;;;22.17;60.48;100177.13;5032701;28;20461;-62
2021/08/06 10:25:03;;;;;;;3.15;1.20;;;;;;;22.18;60.14;100186.75;5031449;28;20628;-61
2021/08/06 10:27:29;;;;;;;2.88;1.30;;;;;;;22.17;60.31;100179.78;5032108;28;20025;-65
2021/08/06 10:29:57;;;;;;;3.13;1.40;;;;;;;22.16;60.37;100184.25;5031781;28;20132;-63
2021/08/06 10:32:23;;;;;;;3.78;1.25;;;;;;;22.17;60.35;100180.59;5031425;28;20435;-63
2021/08/06 10:35:17;;;;;;;2.63;1.00;;;;;;;22.17;60.35;100182.44;5031967;28;20522;-62
2021/08/06 10:37:45;;;;;;;3.13;1.30;;;;;;;22.18;60.43;100184.09;5032100;28;20032;-61
2021/08/06 10:40:10;;;;;;;3.17;1.40;;;;;;;22.18;60.62;100189.41;5031080;28;20112;-61
2021/08/06 10:42:38;;;;;;;4.82;1.55;;;;;;;22.17;60.14;100174.47;5032017;28;20109;-62
2021/08/06 10:45:04;;;;;;;3.63;1.40;;;;;;;22.18;60.47;100178.78;5033040;28;20049;-61
2021/08/06 10:47:50;;;;;;;5.50;2.50;;;;;;;22.21;60.44;100187.25;5034479;28;20033;-63
2021/08/06 10:50:21;;;;;;;4.78;1.38;;;;;;;22.24;60.45;100189.56;5032555;28;20037;-63
2021/08/06 10:53:15;;;;;;;2.70;1.67;;;;;;;22.24;60.58;100188.75;5032442;28;20034;-64
2021/08/06 10:56:16;;;;;;;4.13;1.52;;;;;;;22.27;60.63;100180.41;5032361;28;20125;-63
2021/08/06 10:58:51;;;;;;;3.03;1.40;;;;;;;22.28;60.32;100174.94;5026216;28;20076;-61
2021/08/06 11:01:32;;;;;;;3.00;1.17;;;;;;;22.31;60.27;100179.13;5031090;28;20414;-63
2021/08/06 11:04:02;;;;;;;3.85;1.38;;;;;;;22.31;59.97;100179.13;5031720;28;20203;-64
2021/08/06 11:06:36;;;;;;;3.10;1.20;;;;;;;22.29;60.15;100175.78;5032318;28;20025;-67
2021/08/06 11:09:06;;;;;;;;;;;;;;;22.28;60.08;100171.47;5031894;28;20029;-65
2021/08/06 11:11:53;;;;;;;3.55;1.50;;;;;;;22.25;60.22;100174.47;5035550;28;19913;-65
2021/08/06 11:14:38;;;;;;;4.68;1.40;;;;;;;22.23;60.21;100173.81;5035999;28;20037;-65
2021/08/06 11:17:23;;;;;;;2.42;1.20;;;;;;;22.21;60.23;100184.59;5036899;28;20079;-66
2021/08/06 11:20:10;;;;;;;2.92;1.20;;;;;;;22.22;60.18;100202.19;5041451;28;20021;-65
2021/08/06 11:22:38;;;;;;;3.65;1.27;;;;;;;22.17;60.22;100204.47;5037436;28;20060;-65
2021/08/06 11:25:22;;;;;;;4.43;1.65;;;;;;;22.19;60.21;100221.09;5041135;28;20037;-64
2021/08/06 11:27:56;;;;;;;3.85;1.50;;;;;;;22.20;60.32;100211.28;5040018;28;20029;-64
2021/08/06 11:30:28;;;;;;;4.35;1.88;;;;;;;22.19;60.53;100210.47;5041218;28;20030;-63
2021/08/06 11:32:57;;;;;;;4.35;1.23;;;;;;;22.19;60.41;100199.00;5042044;28;20026;-64